createdAt,value
2023-04-28T00:02:08.254Z,14.90
2023-04-28T00:04:42.301Z,13.40
2023-04-28T00:07:16.259Z,11.80
2023-04-28T00:09:49.708Z,13.60
2023-04-28T00:12:22.953Z,12.50
2023-04-28T00:14:56.905Z,14.00
2023-04-28T00:17:30.738Z,14.40
2023-04-28T00:20:04.844Z,14.50
2023-04-28T00:22:38.721Z,14.90
2023-04-28T00:25:13.046Z,14.60
2023-04-28T00:27:47.333Z,14.00
2023-04-28T00:30:21.552Z,14.70
2023-04-28T00:32:56.379Z,15.70
2023-04-28T00:35:29.983Z,14.70
2023-04-28T00:38:03.287Z,15.50
2023-04-28T00:40:40.882Z,15.50
2023-04-28T00:43:15.687Z,15.70
2023-04-28T00:45:50.516Z,15.90
2023-04-28T00:48:24.547Z,15.40
2023-04-28T00:50:58.318Z,16.60
2023-04-28T00:53:32.480Z,15.40
2023-04-28T00:56:07.358Z,14.90
2023-04-28T00:58:41.042Z,14.60
2023-04-28T01:01:14.452Z,14.50
2023-04-28T01:03:49.136Z,16.70
2023-04-28T01:06:23.438Z,15.80
2023-04-28T01:08:57.919Z,17.50
2023-04-28T01:11:31.458Z,15.40
2023-04-28T01:14:17.418Z,16.40
2023-04-28T01:16:51.727Z,15.70
2023-04-28T01:19:25.925Z,15.80
2023-04-28T01:22:00.077Z,16.30
2023-04-28T01:24:34.091Z,16.00
2023-04-28T01:27:10.579Z,16.50
2023-04-28T01:29:45.365Z,15.80
2023-04-28T01:32:19.298Z,15.00
2023-04-28T01:34:53.130Z,14.90
2023-04-28T01:37:26.948Z,16.20
2023-04-28T01:40:00.756Z,15.40
2023-04-28T01:42:34.229Z,14.60
2023-04-28T01:45:09.682Z,14.70
2023-04-28T01:47:43.392Z,15.00
2023-04-28T01:50:16.889Z,15.70
2023-04-28T01:52:50.645Z,15.90
2023-04-28T01:55:24.108Z,15.30
2023-04-28T01:57:59.042Z,14.30
2023-04-28T02:00:32.919Z,14.90
2023-04-28T02:03:06.381Z,16.50
2023-04-28T02:05:41.832Z,15.20
2023-04-28T02:08:15.353Z,15.00
2023-04-28T02:10:49.115Z,14.90
2023-04-28T02:13:22.578Z,14.20
2023-04-28T02:15:56.583Z,14.80
2023-04-28T02:18:30.777Z,14.60
2023-04-28T02:21:13.687Z,13.90
2023-04-28T02:23:47.910Z,13.80
2023-04-28T02:26:21.545Z,14.00
2023-04-28T02:28:58.242Z,13.90
2023-04-28T02:31:31.896Z,14.30
2023-04-28T02:34:05.562Z,13.80
2023-04-28T02:36:38.934Z,14.60
2023-04-28T02:39:14.706Z,13.50
2023-04-28T02:41:48.520Z,13.50
2023-04-28T02:44:22.147Z,12.90
2023-04-28T02:46:56.006Z,13.70
2023-04-28T02:49:32.260Z,14.10
2023-04-28T02:52:06.097Z,14.40
2023-04-28T02:54:40.069Z,14.00
2023-04-28T02:57:13.802Z,14.10
2023-04-28T02:59:47.280Z,12.00
2023-04-28T03:02:23.513Z,12.90
2023-04-28T03:04:57.887Z,13.50
2023-04-28T03:07:32.028Z,13.90
2023-04-28T03:10:06.038Z,14.80
2023-04-28T03:12:39.672Z,13.70
2023-04-28T03:15:14.419Z,14.20
2023-04-28T03:17:48.766Z,13.60
2023-04-28T03:20:22.722Z,13.30
2023-04-28T03:22:56.108Z,13.40
2023-04-28T03:25:30.104Z,14.30
2023-04-28T03:28:03.941Z,13.30
2023-04-28T03:30:37.300Z,13.00
2023-04-28T03:33:11.086Z,13.20
2023-04-28T03:35:45.013Z,13.80
2023-04-28T03:38:19.104Z,13.50
2023-04-28T03:40:52.833Z,12.60
2023-04-28T03:43:29.472Z,15.30
2023-04-28T03:46:21.130Z,13.90
2023-04-28T03:48:55.480Z,14.00
2023-04-28T03:51:29.458Z,13.70
2023-04-28T03:54:03.265Z,14.30
2023-04-28T03:56:37.478Z,13.40
2023-04-28T03:59:13.394Z,14.00
2023-04-28T04:01:47.001Z,13.30
2023-04-28T04:04:20.680Z,14.20
2023-04-28T04:06:55.611Z,13.40
2023-04-28T04:09:30.179Z,13.80
2023-04-28T04:12:04.024Z,13.20
2023-04-28T04:14:37.638Z,14.30
2023-04-28T04:17:11.304Z,14.70
2023-04-28T04:19:45.076Z,15.30
2023-04-28T04:22:19.249Z,14.10
2023-04-28T04:24:53.079Z,15.60
2023-04-28T04:27:26.673Z,13.40
2023-04-28T04:30:01.242Z,13.30
2023-04-28T04:32:34.690Z,14.60
2023-04-28T04:35:09.017Z,14.60
2023-04-28T04:37:42.994Z,16.00
2023-04-28T04:40:17.075Z,15.60
2023-04-28T04:42:54.606Z,15.20
2023-04-28T04:45:28.644Z,15.70
2023-04-28T04:48:02.587Z,15.70
2023-04-28T04:50:35.968Z,15.00
2023-04-28T04:53:13.310Z,15.90
2023-04-28T04:55:50.188Z,15.30
2023-04-28T04:58:25.653Z,15.30
2023-04-28T05:01:10.756Z,14.30
2023-04-28T05:03:44.670Z,14.00
2023-04-28T05:06:19.145Z,13.90
2023-04-28T05:08:56.935Z,15.10
2023-04-28T05:11:31.163Z,13.80
2023-04-28T05:14:04.713Z,13.70
2023-04-28T05:16:38.901Z,14.80
2023-04-28T05:19:23.713Z,14.50
2023-04-28T05:21:57.460Z,15.10
2023-04-28T05:24:31.310Z,14.30
2023-04-28T05:27:05.142Z,13.30
2023-04-28T05:29:39.076Z,13.40
2023-04-28T05:32:14.008Z,14.20
2023-04-28T05:34:48.524Z,14.90
2023-04-28T05:37:22.191Z,14.20
2023-04-28T05:39:55.947Z,14.90
2023-04-28T05:42:29.504Z,14.80
2023-04-28T05:45:03.309Z,13.90
2023-04-28T05:47:37.230Z,14.90
2023-04-28T05:50:12.813Z,14.30
2023-04-28T05:52:46.664Z,16.50
2023-04-28T05:55:20.625Z,14.40
2023-04-28T05:57:54.905Z,15.00
2023-04-28T06:00:29.393Z,13.10
2023-04-28T06:03:05.926Z,13.20
2023-04-28T06:05:39.804Z,14.20
2023-04-28T06:08:14.225Z,14.10
2023-04-28T06:10:47.751Z,12.60
2023-04-28T06:13:21.565Z,12.40
2023-04-28T06:15:55.364Z,13.20
2023-04-28T06:18:31.966Z,12.50
2023-04-28T06:21:07.774Z,12.50
2023-04-28T06:23:42.606Z,12.80
2023-04-28T06:26:18.234Z,12.80
2023-04-28T06:28:52.773Z,13.70
2023-04-28T06:31:26.538Z,13.20
2023-04-28T06:34:00.531Z,11.20
2023-04-28T06:36:34.611Z,12.30
2023-04-28T06:39:08.602Z,12.40
2023-04-28T06:41:42.917Z,11.20
2023-04-28T06:44:17.288Z,12.70
2023-04-28T06:46:51.886Z,12.70
2023-04-28T06:49:25.356Z,12.50
2023-04-28T06:52:04.863Z,11.10
2023-04-28T06:54:38.833Z,11.00
2023-04-28T06:57:15.299Z,10.60
2023-04-28T06:59:48.994Z,11.40
2023-04-28T07:02:22.666Z,11.10
2023-04-28T07:04:56.890Z,9.70
2023-04-28T07:07:30.334Z,9.10
2023-04-28T07:10:04.663Z,9.20
2023-04-28T07:12:38.458Z,7.90
2023-04-28T07:15:13.808Z,7.70
2023-04-28T07:17:47.371Z,8.70
2023-04-28T07:20:21.477Z,8.30
2023-04-28T07:22:55.238Z,8.70
2023-04-28T07:25:29.067Z,9.60
2023-04-28T07:28:04.991Z,9.00
2023-04-28T07:30:38.750Z,8.70
2023-04-28T07:33:12.465Z,8.10
2023-04-28T07:35:46.673Z,8.10
2023-04-28T07:38:20.817Z,9.50
2023-04-28T07:40:54.750Z,7.60
2023-04-28T07:43:28.740Z,6.80
2023-04-28T07:46:02.217Z,7.70
2023-04-28T07:48:36.409Z,5.70
2023-04-28T07:51:10.369Z,6.30
2023-04-28T07:53:44.347Z,5.90
2023-04-28T07:56:18.505Z,4.90
2023-04-28T07:58:52.962Z,5.50
2023-04-28T08:01:26.228Z,5.40
2023-04-28T08:04:00.266Z,6.20
2023-04-28T08:06:34.877Z,4.20
2023-04-28T08:09:08.706Z,3.90
2023-04-28T08:11:43.019Z,2.70
2023-04-28T08:14:18.228Z,2.30
2023-04-28T08:16:52.179Z,2.20
2023-04-28T08:19:25.663Z,3.00
2023-04-28T08:22:00.346Z,3.40
2023-04-28T08:24:34.829Z,3.50
2023-04-28T08:27:08.546Z,2.70
2023-04-28T08:29:42.205Z,3.40
2023-04-28T08:32:16.165Z,3.50
2023-04-28T08:34:49.535Z,3.70
2023-04-28T08:37:23.127Z,3.20
2023-04-28T08:40:02.613Z,3.50
2023-04-28T08:42:37.987Z,2.90
2023-04-28T08:45:17.004Z,2.90
2023-04-28T08:47:53.105Z,3.00
2023-04-28T08:50:29.132Z,3.40
2023-04-28T08:53:04.421Z,3.60
2023-04-28T08:55:39.273Z,3.50
2023-04-28T08:58:13.301Z,4.00
2023-04-28T09:00:47.012Z,4.00
2023-04-28T09:03:21.017Z,3.80
2023-04-28T09:05:54.942Z,4.10
2023-04-28T09:08:28.622Z,3.70
2023-04-28T09:11:13.979Z,3.10
2023-04-28T09:13:47.130Z,3.30
2023-04-28T09:16:20.702Z,3.70
2023-04-28T09:19:01.174Z,4.00
2023-04-28T09:21:34.685Z,3.90
2023-04-28T09:24:09.027Z,3.20
2023-04-28T09:26:55.426Z,3.30
2023-04-28T09:29:29.870Z,3.20
2023-04-28T09:32:18.747Z,3.10
2023-04-28T09:34:54.247Z,2.70
2023-04-28T09:37:31.193Z,3.20
2023-04-28T09:40:10.869Z,3.00
2023-04-28T09:42:46.901Z,2.80
2023-04-28T09:45:20.919Z,3.10
2023-04-28T09:47:55.232Z,3.00
2023-04-28T09:50:29.196Z,3.70
2023-04-28T09:53:04.470Z,3.50
2023-04-28T09:55:43.860Z,3.60
2023-04-28T09:58:18.860Z,3.60
2023-04-28T10:00:55.758Z,3.90
2023-04-28T10:03:30.886Z,4.10
2023-04-28T10:06:05.967Z,3.80
2023-04-28T10:08:40.605Z,3.50
2023-04-28T10:11:14.800Z,3.90
2023-04-28T10:13:49.027Z,3.90
2023-04-28T10:16:24.104Z,3.70
2023-04-28T10:18:58.053Z,3.80
2023-04-28T10:21:37.950Z,3.60
2023-04-28T10:24:16.973Z,4.00
2023-04-28T10:27:11.758Z,3.30
2023-04-28T10:29:45.559Z,3.80
2023-04-28T10:32:29.365Z,4.10
2023-04-28T10:35:32.578Z,3.90
2023-04-28T10:38:09.951Z,3.60
2023-04-28T10:40:45.149Z,3.40
2023-04-28T10:43:40.169Z,3.50
2023-04-28T10:46:15.102Z,3.60
2023-04-28T10:49:03.570Z,3.50
2023-04-28T10:51:38.430Z,3.00
2023-04-28T10:54:24.438Z,3.20
2023-04-28T10:57:19.803Z,3.30
2023-04-28T11:00:27.449Z,2.70
2023-04-28T11:03:00.870Z,3.00
2023-04-28T11:05:35.567Z,3.40
2023-04-28T11:08:37.927Z,3.30
2023-04-28T11:11:26.546Z,3.30
2023-04-28T11:14:36.514Z,7.10
2023-04-28T11:17:13.787Z,3.60
2023-04-28T11:19:50.073Z,3.10
2023-04-28T11:22:24.571Z,3.10
2023-04-28T11:25:02.150Z,3.20
2023-04-28T11:30:25.719Z,2.80
2023-04-28T11:32:59.482Z,3.60
2023-04-28T11:35:45.716Z,3.30
2023-04-28T11:38:19.633Z,3.00
2023-04-28T11:41:02.474Z,3.60
2023-04-28T11:43:46.574Z,3.60
2023-04-28T11:46:23.548Z,3.20
2023-04-28T11:49:06.682Z,3.70
2023-04-28T11:51:42.030Z,3.10
2023-04-28T11:54:15.412Z,3.50
2023-04-28T11:56:48.945Z,3.20
2023-04-28T11:59:26.329Z,3.90
2023-04-28T12:04:36.820Z,3.40
2023-04-28T12:07:12.365Z,3.30
2023-04-28T12:09:49.102Z,3.50
2023-04-28T12:12:49.133Z,3.10
2023-04-28T12:15:25.695Z,3.50
2023-04-28T12:18:11.014Z,3.10
2023-04-28T12:20:45.267Z,4.10
2023-04-28T12:23:30.917Z,3.00
2023-04-28T12:26:05.829Z,3.40
2023-04-28T12:28:43.283Z,3.80
2023-04-28T12:31:17.052Z,3.70
2023-04-28T12:33:51.425Z,5.30
2023-04-28T12:36:25.070Z,3.90
2023-04-28T12:38:59.102Z,4.00
2023-04-28T12:41:32.987Z,3.60
2023-04-28T12:44:06.921Z,3.40
2023-04-28T12:46:40.538Z,4.60
2023-04-28T12:49:14.392Z,4.60
2023-04-28T12:51:48.654Z,4.70
2023-04-28T12:54:22.664Z,3.70
2023-04-28T12:56:56.299Z,4.00
2023-04-28T12:59:30.067Z,3.90
2023-04-28T13:02:03.637Z,4.00
2023-04-28T13:04:37.687Z,4.10
2023-04-28T13:07:11.690Z,4.30
2023-04-28T13:09:45.973Z,4.40
2023-04-28T13:12:19.835Z,4.70
2023-04-28T13:14:53.514Z,4.60
2023-04-28T13:17:27.519Z,4.10
2023-04-28T13:20:01.757Z,4.20
2023-04-28T13:22:35.201Z,5.10
2023-04-28T13:25:10.451Z,4.30
2023-04-28T13:27:44.026Z,4.80
2023-04-28T13:30:18.709Z,5.00
2023-04-28T13:32:54.483Z,5.60
2023-04-28T13:35:30.147Z,4.90
2023-04-28T13:38:04.772Z,4.60
2023-04-28T13:40:38.466Z,5.10
2023-04-28T13:43:12.127Z,4.90
2023-04-28T13:45:46.283Z,5.60
2023-04-28T13:48:19.920Z,4.50
2023-04-28T13:50:53.570Z,4.90
2023-04-28T13:53:27.095Z,5.50
2023-04-28T13:56:00.904Z,5.30
2023-04-28T13:58:34.608Z,5.30
2023-04-28T14:01:08.298Z,5.70
2023-04-28T14:03:42.270Z,5.40
2023-04-28T14:06:16.148Z,5.30
2023-04-28T14:08:50.210Z,5.20
2023-04-28T14:11:23.897Z,6.20
2023-04-28T14:13:57.870Z,6.10
2023-04-28T14:16:31.561Z,5.50
2023-04-28T14:19:07.693Z,4.70
2023-04-28T14:21:42.373Z,5.30
2023-04-28T14:24:16.116Z,6.00
2023-04-28T14:26:50.132Z,5.30
2023-04-28T14:29:24.568Z,5.60
2023-04-28T14:31:58.711Z,5.60
2023-04-28T14:34:32.162Z,5.90
2023-04-28T14:37:06.439Z,5.00
2023-04-28T14:39:41.066Z,5.20
2023-04-28T14:42:14.389Z,5.40
2023-04-28T14:44:48.612Z,4.80
2023-04-28T14:47:22.572Z,6.20
2023-04-28T14:49:56.399Z,5.20
2023-04-28T14:52:32.096Z,5.20
2023-04-28T14:55:07.399Z,5.40
2023-04-28T14:57:40.920Z,5.50
2023-04-28T15:00:16.616Z,5.70
2023-04-28T15:02:50.869Z,5.00
2023-04-28T15:05:24.797Z,5.80
2023-04-28T15:07:59.099Z,5.60
2023-04-28T15:10:41.172Z,5.80
2023-04-28T15:13:14.799Z,5.40
2023-04-28T15:15:49.245Z,5.20
2023-04-28T15:18:23.036Z,5.40
2023-04-28T15:20:56.577Z,6.50
2023-04-28T15:23:30.224Z,5.50
2023-04-28T15:26:05.354Z,6.40
2023-04-28T15:28:39.715Z,5.80
2023-04-28T15:31:13.708Z,6.10
2023-04-28T15:33:47.846Z,6.00
2023-04-28T15:36:21.673Z,5.60
2023-04-28T15:38:55.394Z,6.10
2023-04-28T15:41:29.603Z,6.00
2023-04-28T15:44:03.448Z,5.70
2023-04-28T15:46:37.384Z,5.50
2023-04-28T15:49:11.499Z,5.70
2023-04-28T15:51:45.952Z,5.90
2023-04-28T15:54:19.698Z,5.30
2023-04-28T15:56:53.324Z,5.30
2023-04-28T15:59:27.222Z,5.60
2023-04-28T16:02:00.882Z,5.50
2023-04-28T16:04:34.855Z,5.20
2023-04-28T16:07:08.676Z,5.60
2023-04-28T16:09:42.631Z,6.40
2023-04-28T16:12:17.182Z,5.60
2023-04-28T16:14:53.457Z,5.30
2023-04-28T16:17:27.368Z,6.30
2023-04-28T16:20:01.349Z,6.10
2023-04-28T16:22:36.885Z,5.90
2023-04-28T16:25:12.063Z,6.00
2023-04-28T16:27:45.467Z,5.30
2023-04-28T16:30:19.024Z,6.00
2023-04-28T16:32:53.366Z,6.00
2023-04-28T16:35:27.773Z,5.90
2023-04-28T16:38:01.415Z,5.40
2023-04-28T16:40:35.866Z,5.90
2023-04-28T16:43:10.584Z,5.30
2023-04-28T16:45:44.488Z,5.80
2023-04-28T16:48:20.562Z,5.60
2023-04-28T16:50:55.227Z,5.40
2023-04-28T16:53:29.023Z,5.50
2023-04-28T16:56:02.874Z,5.40
2023-04-28T16:58:36.950Z,5.10
2023-04-28T17:01:10.487Z,5.20
2023-04-28T17:03:44.790Z,5.90
2023-04-28T17:06:18.959Z,4.90
2023-04-28T17:08:52.583Z,5.40
2023-04-28T17:11:27.307Z,5.30
2023-04-28T17:14:01.020Z,5.50
2023-04-28T17:16:36.503Z,5.10
2023-04-28T17:19:11.027Z,5.50
2023-04-28T17:21:46.927Z,5.20
2023-04-28T17:24:21.486Z,4.80
2023-04-28T17:26:55.801Z,5.00
2023-04-28T17:29:29.573Z,4.60
2023-04-28T17:32:03.182Z,5.10
2023-04-28T17:34:36.728Z,5.80
2023-04-28T17:37:10.633Z,4.90
2023-04-28T17:39:44.168Z,5.10
2023-04-28T17:42:18.540Z,5.40
2023-04-28T17:44:52.467Z,5.80
2023-04-28T17:47:26.666Z,6.00
2023-04-28T17:50:01.183Z,5.90
2023-04-28T17:52:35.318Z,6.30
2023-04-28T17:55:10.317Z,5.50
2023-04-28T17:57:45.266Z,6.00
2023-04-28T18:00:20.124Z,5.90
2023-04-28T18:02:55.578Z,5.60
2023-04-28T18:05:30.354Z,5.60
2023-04-28T18:08:05.221Z,5.60
2023-04-28T18:10:39.608Z,5.90
2023-04-28T18:13:14.687Z,5.50
2023-04-28T18:15:50.281Z,5.80
2023-04-28T18:18:23.822Z,5.40
2023-04-28T18:21:02.754Z,6.30
2023-04-28T18:23:39.236Z,5.70
2023-04-28T18:26:19.160Z,6.10
2023-04-28T18:28:55.795Z,5.00
2023-04-28T18:31:30.930Z,5.40
2023-04-28T18:34:05.683Z,6.20
2023-04-28T18:36:40.655Z,6.90
2023-04-28T18:39:16.348Z,5.90
2023-04-28T18:41:53.467Z,6.10
2023-04-28T18:44:28.701Z,6.20
2023-04-28T18:47:03.452Z,6.20
2023-04-28T18:49:39.825Z,6.50
2023-04-28T18:52:15.122Z,7.20
2023-04-28T18:54:49.890Z,5.80
2023-04-28T18:57:25.120Z,6.40
2023-04-28T19:00:03.630Z,6.90
2023-04-28T19:02:38.800Z,5.90
2023-04-28T19:05:14.540Z,5.90
2023-04-28T19:07:52.354Z,6.70
2023-04-28T19:10:26.942Z,6.20
2023-04-28T19:13:02.989Z,6.30
2023-04-28T19:15:38.544Z,6.00
2023-04-28T19:18:13.801Z,6.40
2023-04-28T19:20:48.237Z,6.60
2023-04-28T19:23:23.859Z,7.00
2023-04-28T19:25:59.065Z,6.70
2023-04-28T19:28:39.062Z,7.00
2023-04-28T19:31:18.915Z,7.00
2023-04-28T19:33:58.628Z,6.70
2023-04-28T19:36:34.225Z,7.60
2023-04-28T19:39:11.345Z,7.30
2023-04-28T19:41:49.397Z,7.40
2023-04-28T19:44:24.946Z,7.40
2023-04-28T19:47:01.035Z,7.50
2023-04-28T19:49:36.993Z,7.10
2023-04-28T19:52:12.626Z,7.00
2023-04-28T19:54:50.151Z,8.00
2023-04-28T19:57:26.392Z,7.60
2023-04-28T20:00:03.897Z,7.60
2023-04-28T20:02:45.394Z,7.40
2023-04-28T20:05:25.278Z,7.40
2023-04-28T20:08:01.110Z,7.00
2023-04-28T20:10:35.382Z,7.70
2023-04-28T20:13:10.261Z,7.40
2023-04-28T20:15:45.064Z,8.20
2023-04-28T20:18:20.870Z,7.80
2023-04-28T20:21:08.467Z,7.50
2023-04-28T20:23:44.102Z,8.20
2023-04-28T20:26:21.666Z,8.10
2023-04-28T20:28:58.840Z,8.80
2023-04-28T20:31:33.601Z,8.50
2023-04-28T20:34:08.306Z,8.50
2023-04-28T20:36:43.093Z,8.70
2023-04-28T20:39:17.319Z,8.90
2023-04-28T20:41:51.233Z,8.30
2023-04-28T20:44:25.193Z,8.90
2023-04-28T20:46:59.516Z,9.00
2023-04-28T20:49:33.753Z,8.90
2023-04-28T20:52:07.713Z,9.50
2023-04-28T20:54:43.987Z,9.90
2023-04-28T20:57:18.090Z,9.90
2023-04-28T20:59:52.188Z,10.00
2023-04-28T21:02:26.407Z,9.40
2023-04-28T21:05:00.711Z,9.60
2023-04-28T21:07:34.713Z,8.60
2023-04-28T21:10:10.548Z,9.90
2023-04-28T21:12:45.160Z,10.00
2023-04-28T21:15:19.332Z,9.20
2023-04-28T21:17:53.164Z,10.20
2023-04-28T21:20:26.604Z,9.90
2023-04-28T21:23:00.185Z,11.60
2023-04-28T21:25:33.793Z,11.40
2023-04-28T21:28:07.955Z,11.10
2023-04-28T21:30:41.704Z,11.20
2023-04-28T21:33:16.320Z,11.50
2023-04-28T21:35:50.387Z,11.50
2023-04-28T21:38:24.058Z,11.50
2023-04-28T21:40:57.600Z,11.30
2023-04-28T21:43:31.267Z,10.40
2023-04-28T21:46:05.300Z,11.80
2023-04-28T21:48:39.677Z,11.70
2023-04-28T21:51:14.785Z,12.10
2023-04-28T21:53:48.475Z,12.10
2023-04-28T21:56:22.215Z,12.80
2023-04-28T21:58:56.082Z,12.50
2023-04-28T22:01:30.078Z,12.80
2023-04-28T22:04:04.224Z,12.50
2023-04-28T22:06:38.241Z,12.60
2023-04-28T22:09:11.647Z,12.80
2023-04-28T22:11:45.060Z,12.30
2023-04-28T22:14:38.936Z,12.20
2023-04-28T22:17:12.294Z,11.30
2023-04-28T22:19:46.309Z,12.30
2023-04-28T22:22:20.711Z,12.30
2023-04-28T22:24:54.972Z,11.00
2023-04-28T22:27:30.705Z,12.50
2023-04-28T22:30:04.475Z,11.90
2023-04-28T22:32:38.108Z,12.60
2023-04-28T22:35:13.116Z,11.70
2023-04-28T22:37:47.153Z,12.60
2023-04-28T22:40:21.578Z,13.20
2023-04-28T22:42:54.821Z,12.00
2023-04-28T22:45:29.032Z,13.00
2023-04-28T22:48:02.703Z,12.90
2023-04-28T22:50:36.092Z,12.50
2023-04-28T22:53:09.832Z,12.40
2023-04-28T22:55:43.961Z,12.90
2023-04-28T22:58:17.267Z,12.20
2023-04-28T23:00:50.954Z,12.50
2023-04-28T23:03:24.447Z,14.00
2023-04-28T23:05:58.149Z,12.30
2023-04-28T23:08:31.737Z,12.50
2023-04-28T23:11:06.827Z,13.60
2023-04-28T23:13:40.224Z,13.10
2023-04-28T23:16:14.378Z,13.60
2023-04-28T23:18:48.451Z,13.20
2023-04-28T23:21:22.441Z,12.70
2023-04-28T23:23:56.149Z,13.00
2023-04-28T23:26:29.922Z,12.30
2023-04-28T23:29:03.336Z,13.20
2023-04-28T23:31:40.155Z,13.50
2023-04-28T23:34:14.230Z,12.70
2023-04-28T23:36:47.922Z,13.70
2023-04-28T23:39:21.386Z,12.00
2023-04-28T23:41:55.050Z,12.20
2023-04-28T23:44:29.029Z,12.70
2023-04-28T23:47:02.621Z,13.70
2023-04-28T23:49:36.240Z,13.60
2023-04-28T23:52:09.787Z,12.60
2023-04-28T23:54:43.872Z,13.70
2023-04-28T23:57:17.521Z,13.00
2023-04-28T23:59:51.476Z,13.30
